createdAt,value
2018-04-26T00:00:17.995Z,0
2018-04-26T00:01:18.675Z,0
2018-04-26T00:02:19.347Z,0
2018-04-26T00:03:20.020Z,0
2018-04-26T00:04:20.697Z,0
2018-04-26T00:05:21.378Z,0
2018-04-26T00:06:22.051Z,0
2018-04-26T00:07:22.725Z,0
2018-04-26T00:08:23.397Z,0
2018-04-26T00:09:24.070Z,0
2018-04-26T00:10:24.741Z,0
2018-04-26T00:11:25.413Z,0
2018-04-26T00:12:26.097Z,0
2018-04-26T00:13:26.771Z,0
2018-04-26T00:14:27.441Z,0
2018-04-26T00:15:28.113Z,0
2018-04-26T00:16:28.785Z,0
2018-04-26T00:17:29.455Z,0
2018-04-26T00:18:30.130Z,0
2018-04-26T00:19:30.803Z,0
2018-04-26T00:20:31.483Z,0
2018-04-26T00:21:32.153Z,0
2018-04-26T00:22:32.825Z,0
2018-04-26T00:23:33.500Z,0
2018-04-26T00:24:34.174Z,0
2018-04-26T00:25:34.847Z,0
2018-04-26T00:26:35.527Z,0
2018-04-26T00:27:36.201Z,0
2018-04-26T00:28:36.874Z,0
2018-04-26T00:29:37.548Z,0
2018-04-26T00:30:38.220Z,0
2018-04-26T00:31:38.888Z,0
2018-04-26T00:32:39.560Z,0
2018-04-26T00:33:40.233Z,0
2018-04-26T00:34:40.907Z,0
2018-04-26T00:35:41.590Z,0
2018-04-26T00:36:42.258Z,0
2018-04-26T00:37:42.931Z,0
2018-04-26T00:38:43.605Z,0
2018-04-26T00:39:44.285Z,0
2018-04-26T00:40:44.957Z,0
2018-04-26T00:41:45.630Z,0
2018-04-26T00:42:46.306Z,0
2018-04-26T00:43:46.984Z,0
2018-04-26T00:44:47.656Z,0
2018-04-26T00:45:48.329Z,0
2018-04-26T00:46:49.003Z,0
2018-04-26T00:47:49.676Z,0
2018-04-26T00:48:50.356Z,0
2018-04-26T00:49:51.027Z,0
2018-04-26T00:50:51.697Z,0
2018-04-26T00:51:52.372Z,0
2018-04-26T00:52:53.044Z,0
2018-04-26T00:53:53.717Z,0
2018-04-26T00:54:54.397Z,0
2018-04-26T00:55:55.068Z,0
2018-04-26T00:56:55.740Z,0
2018-04-26T00:57:56.408Z,0
2018-04-26T00:58:57.080Z,0
2018-04-26T00:59:57.751Z,0
2018-04-26T01:00:58.420Z,0
2018-04-26T01:01:59.089Z,0
2018-04-26T01:02:59.760Z,0
2018-04-26T01:04:00.430Z,0
2018-04-26T01:05:01.109Z,0
2018-04-26T01:06:01.786Z,0
2018-04-26T01:07:02.457Z,0
2018-04-26T01:08:03.127Z,0
2018-04-26T01:09:03.801Z,0
2018-04-26T01:10:04.477Z,0
2018-04-26T01:11:05.150Z,0
2018-04-26T01:12:05.821Z,0
2018-04-26T01:13:06.500Z,0
2018-04-26T01:14:07.171Z,0
2018-04-26T01:15:07.843Z,0
2018-04-26T01:16:08.514Z,0
2018-04-26T01:17:09.185Z,0
2018-04-26T01:18:09.859Z,0
2018-04-26T01:19:10.530Z,0
2018-04-26T01:20:11.301Z,0
2018-04-26T01:21:11.872Z,0
2018-04-26T01:22:12.550Z,0
2018-04-26T01:23:13.220Z,0
2018-04-26T01:24:13.893Z,0
2018-04-26T01:25:14.572Z,0
2018-04-26T01:26:15.242Z,0
2018-04-26T01:27:15.916Z,0
2018-04-26T01:28:16.588Z,0
2018-04-26T01:29:17.261Z,0
2018-04-26T01:30:17.932Z,0
2018-04-26T01:31:18.605Z,0
2018-04-26T01:32:19.277Z,0
2018-04-26T01:33:19.950Z,0
2018-04-26T01:34:20.627Z,0
2018-04-26T01:35:21.306Z,0
2018-04-26T01:36:21.977Z,0
2018-04-26T01:37:22.649Z,0
2018-04-26T01:38:23.322Z,0
2018-04-26T01:39:23.993Z,0
2018-04-26T01:40:24.666Z,0
2018-04-26T01:41:25.339Z,0
2018-04-26T01:42:26.016Z,0
2018-04-26T01:43:26.690Z,0
2018-04-26T01:44:27.361Z,0
2018-04-26T01:45:28.032Z,0
2018-04-26T01:46:28.701Z,0
2018-04-26T01:47:29.375Z,0
2018-04-26T01:48:30.047Z,0
2018-04-26T01:49:30.718Z,0
2018-04-26T01:50:31.389Z,0
2018-04-26T01:51:32.057Z,0
2018-04-26T01:52:32.729Z,0
2018-04-26T01:53:33.406Z,0
2018-04-26T01:54:34.076Z,0
2018-04-26T01:55:34.748Z,0
2018-04-26T01:56:35.421Z,0
2018-04-26T01:57:36.093Z,0
2018-04-26T01:58:36.763Z,0
2018-04-26T01:59:37.436Z,0
2018-04-26T02:00:38.109Z,0
2018-04-26T02:01:38.781Z,0
2018-04-26T02:02:39.452Z,0
2018-04-26T02:03:40.127Z,0
2018-04-26T02:04:40.791Z,0
2018-04-26T02:05:41.459Z,0
2018-04-26T02:06:42.131Z,0
2018-04-26T02:07:42.801Z,0
2018-04-26T02:08:43.475Z,0
2018-04-26T02:09:44.221Z,0
2018-04-26T02:10:44.829Z,0
2018-04-26T02:11:45.501Z,0
2018-04-26T02:12:46.166Z,0
2018-04-26T02:13:46.839Z,0
2018-04-26T02:14:47.517Z,0
2018-04-26T02:15:48.182Z,0
2018-04-26T02:16:48.854Z,0
2018-04-26T02:17:49.525Z,0
2018-04-26T02:18:50.238Z,0
2018-04-26T02:19:50.870Z,0
2018-04-26T02:20:51.544Z,0
2018-04-26T02:21:52.222Z,0
2018-04-26T02:22:52.899Z,0
2018-04-26T02:23:53.572Z,0
2018-04-26T02:24:54.244Z,0
2018-04-26T02:25:54.915Z,0
2018-04-26T02:26:55.590Z,0
2018-04-26T02:27:56.262Z,0
2018-04-26T02:28:56.934Z,0
2018-04-26T02:29:57.609Z,0
2018-04-26T02:30:58.279Z,0
2018-04-26T02:31:58.953Z,0
2018-04-26T02:32:59.624Z,0
2018-04-26T02:34:00.303Z,0
2018-04-26T02:35:00.973Z,0
2018-04-26T02:36:01.649Z,0
2018-04-26T02:37:02.322Z,0
2018-04-26T02:38:02.994Z,0
2018-04-26T02:39:03.664Z,0
2018-04-26T02:40:04.336Z,0
2018-04-26T02:41:05.007Z,0
2018-04-26T02:42:05.681Z,0
2018-04-26T02:43:06.358Z,0
2018-04-26T02:44:07.033Z,0
2018-04-26T02:45:07.710Z,0
2018-04-26T02:46:08.376Z,0
2018-04-26T02:47:09.050Z,0
2018-04-26T02:48:09.721Z,0
2018-04-26T02:49:10.391Z,0
2018-04-26T02:50:11.071Z,0
2018-04-26T02:51:11.750Z,0
2018-04-26T02:52:12.407Z,0
2018-04-26T02:53:13.082Z,0
2018-04-26T02:54:13.749Z,0
2018-04-26T02:55:14.432Z,0
2018-04-26T02:56:15.099Z,0
2018-04-26T02:57:15.772Z,0
2018-04-26T02:58:16.440Z,0
2018-04-26T02:59:17.160Z,0
2018-04-26T03:00:17.784Z,0
2018-04-26T03:01:18.456Z,0
2018-04-26T03:02:19.125Z,0
2018-04-26T03:03:19.796Z,0
2018-04-26T03:04:20.473Z,0
2018-04-26T03:05:21.137Z,0
2018-04-26T03:06:21.807Z,0
2018-04-26T03:07:22.474Z,0
2018-04-26T03:08:23.188Z,0
2018-04-26T03:09:23.812Z,0
2018-04-26T03:10:24.483Z,0
2018-04-26T03:11:25.153Z,0
2018-04-26T03:12:25.835Z,0
2018-04-26T03:13:26.513Z,0
2018-04-26T03:14:27.180Z,0
2018-04-26T03:15:27.850Z,0
2018-04-26T03:16:28.528Z,0
2018-04-26T03:17:29.201Z,0
2018-04-26T03:18:29.868Z,0
2018-04-26T03:19:30.538Z,0
2018-04-26T03:20:31.210Z,0
2018-04-26T03:21:31.881Z,0
2018-04-26T03:22:32.550Z,0
2018-04-26T03:23:33.221Z,0
2018-04-26T03:24:33.892Z,0
2018-04-26T03:25:34.564Z,0
2018-04-26T03:26:35.234Z,0
2018-04-26T03:27:35.905Z,0
2018-04-26T03:28:36.590Z,0
2018-04-26T03:29:37.257Z,0
2018-04-26T03:30:37.933Z,0
2018-04-26T03:31:38.601Z,0
2018-04-26T03:32:39.273Z,0
2018-04-26T03:33:39.948Z,0
2018-04-26T03:34:40.617Z,0
2018-04-26T03:35:41.287Z,0
2018-04-26T03:36:41.961Z,0
2018-04-26T03:37:42.633Z,0
2018-04-26T03:38:43.310Z,0
2018-04-26T03:39:44.046Z,0
2018-04-26T03:40:44.710Z,0
2018-04-26T03:41:45.376Z,0
2018-04-26T03:42:46.056Z,0
2018-04-26T03:43:46.730Z,0
2018-04-26T03:44:47.397Z,0
2018-04-26T03:45:48.076Z,0
2018-04-26T03:46:48.751Z,4
2018-04-26T03:47:49.423Z,4
2018-04-26T03:48:50.096Z,0
2018-04-26T03:49:50.765Z,4
2018-04-26T03:50:51.437Z,0
2018-04-26T03:51:52.104Z,4
2018-04-26T03:52:52.771Z,4
2018-04-26T03:53:53.442Z,4
2018-04-26T03:54:54.116Z,8
2018-04-26T03:55:54.783Z,8
2018-04-26T03:56:55.457Z,8
2018-04-26T03:57:56.124Z,12
2018-04-26T03:58:56.796Z,12
2018-04-26T03:59:57.466Z,16
2018-04-26T04:00:58.141Z,20
2018-04-26T04:01:58.813Z,20
2018-04-26T04:02:59.483Z,20
2018-04-26T04:04:00.155Z,20
2018-04-26T04:05:00.830Z,20
2018-04-26T04:06:01.503Z,24
2018-04-26T04:07:02.179Z,24
2018-04-26T04:08:02.855Z,24
2018-04-26T04:09:03.524Z,24
2018-04-26T04:10:04.196Z,28
2018-04-26T04:11:04.873Z,32
2018-04-26T04:12:05.542Z,32
2018-04-26T04:13:06.215Z,40
2018-04-26T04:14:06.895Z,40
2018-04-26T04:15:07.565Z,40
2018-04-26T04:16:08.236Z,44
2018-04-26T04:17:08.914Z,48
2018-04-26T04:18:09.577Z,52
2018-04-26T04:19:10.248Z,56
2018-04-26T04:20:10.918Z,52
2018-04-26T04:21:11.587Z,52
2018-04-26T04:22:12.260Z,56
2018-04-26T04:23:12.937Z,60
2018-04-26T04:24:13.606Z,56
2018-04-26T04:25:14.274Z,64
2018-04-26T04:26:14.941Z,72
2018-04-26T04:27:15.616Z,72
2018-04-26T04:28:16.285Z,68
2018-04-26T04:29:16.963Z,68
2018-04-26T04:30:17.634Z,68
2018-04-26T04:31:18.307Z,68
2018-04-26T04:32:18.980Z,76
2018-04-26T04:33:19.650Z,92
2018-04-26T04:34:20.323Z,108
2018-04-26T04:35:21.068Z,116
2018-04-26T04:36:21.670Z,124
2018-04-26T04:37:22.343Z,128
2018-04-26T04:38:23.021Z,144
2018-04-26T04:39:23.693Z,148
2018-04-26T04:40:24.371Z,144
2018-04-26T04:41:25.041Z,136
2018-04-26T04:42:25.726Z,132
2018-04-26T04:43:26.402Z,128
2018-04-26T04:44:27.075Z,132
2018-04-26T04:45:27.751Z,140
2018-04-26T04:46:28.425Z,152
2018-04-26T04:47:29.099Z,156
2018-04-26T04:48:29.785Z,156
2018-04-26T04:49:30.456Z,164
2018-04-26T04:50:31.134Z,180
2018-04-26T04:51:31.810Z,208
2018-04-26T04:52:32.486Z,236
2018-04-26T04:53:33.164Z,256
2018-04-26T04:54:33.835Z,284
2018-04-26T04:55:34.509Z,316
2018-04-26T04:56:35.185Z,328
2018-04-26T04:57:35.858Z,328
2018-04-26T04:58:36.531Z,344
2018-04-26T04:59:37.204Z,392
2018-04-26T05:00:37.876Z,436
2018-04-26T05:01:38.550Z,484
2018-04-26T05:02:39.224Z,476
2018-04-26T05:03:39.905Z,432
2018-04-26T05:04:40.576Z,428
2018-04-26T05:05:41.249Z,444
2018-04-26T05:06:41.921Z,452
2018-04-26T05:07:42.597Z,476
2018-04-26T05:08:43.281Z,532
2018-04-26T05:09:43.956Z,632
2018-04-26T05:10:44.628Z,740
2018-04-26T05:11:45.299Z,884
2018-04-26T05:12:45.975Z,940
2018-04-26T05:13:46.657Z,964
2018-04-26T05:14:47.328Z,1004
2018-04-26T05:15:48.012Z,1040
2018-04-26T05:16:48.679Z,1044
2018-04-26T05:17:49.353Z,1088
2018-04-26T05:18:50.031Z,1116
2018-04-26T05:19:50.705Z,1076
2018-04-26T05:20:51.380Z,1032
2018-04-26T05:21:52.049Z,1004
2018-04-26T05:22:52.722Z,988
2018-04-26T05:23:53.399Z,1084
2018-04-26T05:24:54.081Z,1156
2018-04-26T05:25:54.756Z,1168
2018-04-26T05:26:55.431Z,1052
2018-04-26T05:27:56.128Z,924
2018-04-26T05:28:56.786Z,980
2018-04-26T05:29:57.484Z,1112
2018-04-26T05:30:58.139Z,1200
2018-04-26T05:31:58.817Z,1292
2018-04-26T05:32:59.490Z,1332
2018-04-26T05:34:00.169Z,1396
2018-04-26T05:35:00.844Z,1440
2018-04-26T05:36:01.544Z,1452
2018-04-26T05:37:02.216Z,1436
2018-04-26T05:38:02.902Z,1356
2018-04-26T05:39:03.577Z,1308
2018-04-26T05:40:04.264Z,1328
2018-04-26T05:41:04.933Z,1460
2018-04-26T05:42:05.615Z,1552
2018-04-26T05:43:06.287Z,1540
2018-04-26T05:44:06.969Z,1548
2018-04-26T05:45:07.645Z,1568
2018-04-26T05:46:08.323Z,1532
2018-04-26T05:47:08.998Z,1392
2018-04-26T05:48:09.677Z,1340
2018-04-26T05:49:10.351Z,1452
2018-04-26T05:50:11.023Z,1508
2018-04-26T05:51:11.698Z,1568
2018-04-26T05:52:12.372Z,1632
2018-04-26T05:53:13.050Z,1692
2018-04-26T05:54:13.730Z,1792
2018-04-26T05:55:14.403Z,2068
2018-04-26T05:56:15.077Z,2200
2018-04-26T05:57:15.754Z,2120
2018-04-26T05:58:16.428Z,2024
2018-04-26T05:59:17.104Z,2156
2018-04-26T06:00:17.780Z,2168
2018-04-26T06:01:18.458Z,1792
2018-04-26T06:02:19.133Z,1688
2018-04-26T06:03:19.815Z,1668
2018-04-26T06:04:20.497Z,1472
2018-04-26T06:05:21.174Z,1300
2018-04-26T06:06:21.851Z,1396
2018-04-26T06:07:22.523Z,1408
2018-04-26T06:08:23.202Z,1420
2018-04-26T06:09:23.880Z,1576
2018-04-26T06:10:24.553Z,1944
2018-04-26T06:11:25.313Z,2040
2018-04-26T06:12:25.914Z,2228
2018-04-26T06:13:26.588Z,2556
2018-04-26T06:14:27.260Z,2568
2018-04-26T06:15:27.948Z,2576
2018-04-26T06:16:28.621Z,2508
2018-04-26T06:17:29.294Z,2584
2018-04-26T06:18:29.968Z,2664
2018-04-26T06:19:30.643Z,2884
2018-04-26T06:20:31.320Z,2992
2018-04-26T06:21:31.998Z,2832
2018-04-26T06:22:32.674Z,2992
2018-04-26T06:23:33.352Z,3440
2018-04-26T06:24:34.027Z,3300
2018-04-26T06:25:34.707Z,3224
2018-04-26T06:26:35.391Z,3264
2018-04-26T06:27:36.067Z,3280
2018-04-26T06:28:36.743Z,3224
2018-04-26T06:29:37.427Z,3376
2018-04-26T06:30:38.101Z,3496
2018-04-26T06:31:38.784Z,3880
2018-04-26T06:32:39.461Z,3908
2018-04-26T06:33:40.139Z,3912
2018-04-26T06:34:40.819Z,3816
2018-04-26T06:35:41.492Z,3736
2018-04-26T06:36:42.165Z,3620
2018-04-26T06:37:42.842Z,3588
2018-04-26T06:38:43.520Z,3436
2018-04-26T06:39:44.192Z,3288
2018-04-26T06:40:44.865Z,3168
2018-04-26T06:41:45.539Z,3468
2018-04-26T06:42:46.219Z,3892
2018-04-26T06:43:46.899Z,3548
2018-04-26T06:44:47.575Z,3712
2018-04-26T06:45:48.248Z,3868
2018-04-26T06:46:48.925Z,3528
2018-04-26T06:47:49.622Z,3428
2018-04-26T06:48:50.277Z,3976
2018-04-26T06:49:50.955Z,3956
2018-04-26T06:50:51.630Z,4144
2018-04-26T06:51:52.311Z,4540
2018-04-26T06:52:52.986Z,4552
2018-04-26T06:53:53.663Z,4724
2018-04-26T06:54:54.339Z,4600
2018-04-26T06:55:55.024Z,4528
2018-04-26T06:56:55.698Z,3908
2018-04-26T06:57:56.382Z,4452
2018-04-26T06:58:57.056Z,4592
2018-04-26T06:59:57.744Z,4856
2018-04-26T07:00:58.423Z,4436
2018-04-26T07:01:59.098Z,4520
2018-04-26T07:02:59.774Z,4376
2018-04-26T07:04:00.456Z,4112
2018-04-26T07:05:01.136Z,3776
2018-04-26T07:06:01.811Z,3832
2018-04-26T07:07:02.492Z,3984
2018-04-26T07:08:03.165Z,4120
2018-04-26T07:09:03.843Z,4196
2018-04-26T07:10:04.520Z,4160
2018-04-26T07:11:05.196Z,4320
2018-04-26T07:12:05.884Z,4432
2018-04-26T07:13:06.552Z,4008
2018-04-26T07:14:07.232Z,4020
2018-04-26T07:15:07.911Z,3948
2018-04-26T07:16:08.585Z,3180
2018-04-26T07:17:09.260Z,2788
2018-04-26T07:18:09.941Z,2636
2018-04-26T07:19:10.621Z,2680
2018-04-26T07:20:11.298Z,2404
2018-04-26T07:21:11.977Z,2372
2018-04-26T07:22:12.658Z,2216
2018-04-26T07:23:13.332Z,2884
2018-04-26T07:24:14.011Z,3020
2018-04-26T07:25:14.689Z,3436
2018-04-26T07:26:15.373Z,3804
2018-04-26T07:27:16.048Z,3852
2018-04-26T07:28:16.728Z,3180
2018-04-26T07:29:17.404Z,2976
2018-04-26T07:30:18.082Z,3588
2018-04-26T07:31:18.758Z,3536
2018-04-26T07:32:19.438Z,3852
2018-04-26T07:33:20.118Z,3728
2018-04-26T07:34:20.792Z,3556
2018-04-26T07:35:21.482Z,4088
2018-04-26T07:36:22.160Z,4792
2018-04-26T07:37:22.836Z,4856
2018-04-26T07:38:23.514Z,4968
2018-04-26T07:39:24.191Z,4472
2018-04-26T07:40:24.866Z,4368
2018-04-26T07:41:25.549Z,4856
2018-04-26T07:42:26.291Z,4820
2018-04-26T07:43:26.965Z,4452
2018-04-26T07:44:27.640Z,4784
2018-04-26T07:45:28.325Z,5036
2018-04-26T07:46:29.029Z,4932
2018-04-26T07:47:29.705Z,4716
2018-04-26T07:48:30.385Z,4976
2018-04-26T07:49:31.059Z,5340
2018-04-26T07:50:31.741Z,5496
2018-04-26T07:51:32.412Z,5648
2018-04-26T07:52:33.095Z,5768
2018-04-26T07:53:33.776Z,5756
2018-04-26T07:54:34.449Z,5588
2018-04-26T07:55:35.132Z,5640
2018-04-26T07:56:35.808Z,5488
2018-04-26T07:57:36.485Z,5056
2018-04-26T07:58:37.159Z,5352
2018-04-26T07:59:37.840Z,5184
2018-04-26T08:00:38.526Z,5280
2018-04-26T08:01:39.319Z,5480
2018-04-26T08:02:39.877Z,5460
2018-04-26T08:03:40.556Z,4744
2018-04-26T08:04:41.232Z,4552
2018-04-26T08:05:41.916Z,4332
2018-04-26T08:06:42.591Z,4256
2018-04-26T08:07:43.264Z,5160
2018-04-26T08:08:43.951Z,5344
2018-04-26T08:09:44.626Z,5640
2018-04-26T08:10:45.299Z,5976
2018-04-26T08:11:45.992Z,5336
2018-04-26T08:12:46.664Z,5436
2018-04-26T08:13:47.344Z,5412
2018-04-26T08:14:48.026Z,5368
2018-04-26T08:15:48.703Z,5308
2018-04-26T08:16:49.393Z,4988
2018-04-26T08:17:50.068Z,5216
2018-04-26T08:18:50.744Z,5960
2018-04-26T08:19:51.430Z,5092
2018-04-26T08:20:52.101Z,5560
2018-04-26T08:21:52.782Z,5244
2018-04-26T08:22:53.472Z,5340
2018-04-26T08:23:54.134Z,6112
2018-04-26T08:24:54.833Z,5788
2018-04-26T08:25:55.488Z,5468
2018-04-26T08:26:56.230Z,5788
2018-04-26T08:27:56.904Z,5452
2018-04-26T08:28:57.582Z,5012
2018-04-26T08:29:58.260Z,5004
2018-04-26T08:30:58.939Z,5208
2018-04-26T08:31:59.615Z,5476
2018-04-26T08:33:00.298Z,5756
2018-04-26T08:34:00.981Z,5932
2018-04-26T08:35:01.660Z,6108
2018-04-26T08:36:02.339Z,5632
2018-04-26T08:37:03.020Z,5180
2018-04-26T08:38:03.700Z,5256
2018-04-26T08:39:04.379Z,5588
2018-04-26T08:40:05.060Z,6256
2018-04-26T08:41:05.733Z,5932
2018-04-26T08:42:06.409Z,5372
2018-04-26T08:43:07.083Z,4360
2018-04-26T08:44:07.762Z,4416
2018-04-26T08:45:08.439Z,4936
2018-04-26T08:46:09.116Z,5228
2018-04-26T08:47:09.793Z,5168
2018-04-26T08:48:10.472Z,5284
2018-04-26T08:49:11.153Z,5472
2018-04-26T08:50:11.829Z,6108
2018-04-26T08:51:12.506Z,6000
2018-04-26T08:52:13.237Z,5856
2018-04-26T08:53:13.872Z,4772
2018-04-26T08:54:14.757Z,4084
2018-04-26T08:55:15.432Z,4652
2018-04-26T08:56:16.115Z,5604
2018-04-26T08:57:16.788Z,5636
2018-04-26T08:58:17.463Z,5500
2018-04-26T08:59:18.141Z,5496
2018-04-26T09:00:18.818Z,5780
2018-04-26T09:01:19.494Z,6216
2018-04-26T09:02:20.185Z,6180
2018-04-26T09:03:20.872Z,5644
2018-04-26T09:04:21.550Z,4764
2018-04-26T09:05:22.237Z,4464
2018-04-26T09:06:22.914Z,4192
2018-04-26T09:07:23.590Z,3512
2018-04-26T09:08:24.270Z,3012
2018-04-26T09:09:24.946Z,2940
2018-04-26T09:10:25.623Z,3312
2018-04-26T09:11:26.297Z,4108
2018-04-26T09:12:26.972Z,5076
2018-04-26T09:13:27.660Z,4688
2018-04-26T09:14:28.334Z,4324
2018-04-26T09:15:29.015Z,3572
2018-04-26T09:16:29.692Z,3072
2018-04-26T09:17:30.365Z,2716
2018-04-26T09:18:31.040Z,3192
2018-04-26T09:19:31.718Z,3236
2018-04-26T09:20:32.393Z,2724
2018-04-26T09:21:33.073Z,2516
2018-04-26T09:22:33.750Z,2500
2018-04-26T09:23:34.425Z,2152
2018-04-26T09:24:35.102Z,1880
2018-04-26T09:25:35.783Z,1532
2018-04-26T09:26:36.461Z,1348
2018-04-26T09:27:37.135Z,1352
2018-04-26T09:28:37.813Z,1596
2018-04-26T09:29:38.490Z,2024
2018-04-26T09:30:39.165Z,2364
2018-04-26T09:31:39.844Z,2420
2018-04-26T09:32:40.527Z,2564
2018-04-26T09:33:41.208Z,2560
2018-04-26T09:34:41.888Z,2624
2018-04-26T09:35:42.566Z,2924
2018-04-26T09:36:43.242Z,3528
2018-04-26T09:37:43.918Z,3420
2018-04-26T09:38:44.602Z,3808
2018-04-26T09:39:45.273Z,4580
2018-04-26T09:40:45.950Z,5132
2018-04-26T09:41:46.623Z,5036
2018-04-26T09:42:47.306Z,4748
2018-04-26T09:43:47.982Z,5120
2018-04-26T09:44:48.663Z,5680
2018-04-26T09:45:49.343Z,5916
2018-04-26T09:46:50.018Z,5720
2018-04-26T09:47:50.722Z,5640
2018-04-26T09:48:51.406Z,5416
2018-04-26T09:49:52.082Z,4968
2018-04-26T09:50:52.761Z,4308
2018-04-26T09:51:53.452Z,4084
2018-04-26T09:52:54.133Z,3952
2018-04-26T09:53:54.818Z,4120
2018-04-26T09:54:55.504Z,3952
2018-04-26T09:55:56.182Z,3948
2018-04-26T09:56:56.860Z,4480
2018-04-26T09:57:57.544Z,4520
2018-04-26T09:58:58.218Z,4352
2018-04-26T09:59:58.898Z,4380
2018-04-26T10:00:59.576Z,4704
2018-04-26T10:02:00.270Z,4868
2018-04-26T10:03:00.946Z,4940
2018-04-26T10:04:01.635Z,5484
2018-04-26T10:05:02.321Z,6112
2018-04-26T10:06:03.004Z,6164
2018-04-26T10:07:03.688Z,6032
2018-04-26T10:08:04.364Z,5224
2018-04-26T10:09:05.046Z,5052
2018-04-26T10:10:05.755Z,4636
2018-04-26T10:11:06.397Z,5040
2018-04-26T10:12:07.070Z,5972
2018-04-26T10:13:07.746Z,6112
2018-04-26T10:14:08.422Z,6016
2018-04-26T10:15:09.181Z,6228
2018-04-26T10:16:09.780Z,7104
2018-04-26T10:17:10.461Z,7372
2018-04-26T10:18:11.141Z,7252
2018-04-26T10:19:11.821Z,7192
2018-04-26T10:20:12.496Z,6928
2018-04-26T10:21:13.182Z,7068
2018-04-26T10:22:13.855Z,7704
2018-04-26T10:23:14.534Z,8132
2018-04-26T10:24:15.217Z,8240
2018-04-26T10:25:15.900Z,8380
2018-04-26T10:26:16.576Z,8740
2018-04-26T10:27:17.263Z,9220
2018-04-26T10:28:17.942Z,9300
2018-04-26T10:29:18.630Z,8856
2018-04-26T10:30:19.306Z,7292
2018-04-26T10:31:19.983Z,7024
2018-04-26T10:32:20.662Z,7668
2018-04-26T10:33:21.339Z,8352
2018-04-26T10:34:22.022Z,8324
2018-04-26T10:35:22.708Z,7824
2018-04-26T10:36:23.377Z,7332
2018-04-26T10:37:24.059Z,6924
2018-04-26T10:38:24.734Z,6428
2018-04-26T10:39:25.442Z,6140
2018-04-26T10:40:26.087Z,5556
2018-04-26T10:41:26.771Z,4776
2018-04-26T10:42:27.447Z,4236
2018-04-26T10:43:28.128Z,4424
2018-04-26T10:44:28.817Z,4836
2018-04-26T10:45:29.493Z,4812
2018-04-26T10:46:30.176Z,4692
2018-04-26T10:47:30.861Z,4504
2018-04-26T10:48:31.541Z,4612
2018-04-26T10:49:32.230Z,4868
2018-04-26T10:50:32.909Z,5344
2018-04-26T10:51:33.592Z,6080
2018-04-26T10:52:34.270Z,6164
2018-04-26T10:53:34.963Z,5612
2018-04-26T10:54:35.640Z,5260
2018-04-26T10:55:36.319Z,4996
2018-04-26T10:56:36.992Z,4936
2018-04-26T10:57:37.670Z,4472
2018-04-26T10:58:38.349Z,4036
2018-04-26T10:59:39.030Z,4132
2018-04-26T11:00:39.708Z,4364
2018-04-26T11:01:40.386Z,4840
2018-04-26T11:02:41.058Z,5152
2018-04-26T11:03:41.736Z,5336
2018-04-26T11:04:42.413Z,5420
2018-04-26T11:05:43.094Z,5024
2018-04-26T11:06:43.773Z,4872
2018-04-26T11:07:44.454Z,4472
2018-04-26T11:08:45.129Z,4796
2018-04-26T11:09:45.808Z,5716
2018-04-26T11:10:46.487Z,5860
2018-04-26T11:11:47.166Z,5360
2018-04-26T11:12:47.844Z,5176
2018-04-26T11:13:48.526Z,5460
2018-04-26T11:14:49.213Z,5580
2018-04-26T11:15:49.889Z,5932
2018-04-26T11:16:50.567Z,6768
2018-04-26T11:17:51.247Z,7272
2018-04-26T11:18:51.923Z,7680
2018-04-26T11:19:52.603Z,7784
2018-04-26T11:20:53.279Z,6372
2018-04-26T11:21:53.956Z,6580
2018-04-26T11:22:54.635Z,7180
2018-04-26T11:23:55.309Z,7448
2018-04-26T11:24:55.990Z,7392
2018-04-26T11:25:56.675Z,7612
2018-04-26T11:26:57.352Z,7972
2018-04-26T11:27:58.029Z,7616
2018-04-26T11:28:58.710Z,6964
2018-04-26T11:29:59.388Z,6876
2018-04-26T11:31:00.171Z,7664
2018-04-26T11:32:00.743Z,7608
2018-04-26T11:33:01.423Z,7320
2018-04-26T11:34:02.110Z,6632
2018-04-26T11:35:02.790Z,6400
2018-04-26T11:36:03.469Z,7136
2018-04-26T11:37:04.150Z,7992
2018-04-26T11:38:04.829Z,7864
2018-04-26T11:39:05.503Z,6944
2018-04-26T11:40:06.271Z,6456
2018-04-26T11:41:06.868Z,5792
2018-04-26T11:42:07.551Z,4748
2018-04-26T11:43:08.272Z,4016
2018-04-26T11:44:08.955Z,3588
2018-04-26T11:45:09.631Z,3676
2018-04-26T11:46:10.303Z,3836
2018-04-26T11:47:10.994Z,4264
2018-04-26T11:48:11.681Z,4984
2018-04-26T11:49:12.359Z,7788
2018-04-26T11:50:13.039Z,7184
2018-04-26T11:51:13.943Z,8844
2018-04-26T11:52:14.621Z,23904
2018-04-26T11:53:15.300Z,44704
2018-04-26T11:54:15.986Z,8692
2018-04-26T11:55:16.675Z,8856
2018-04-26T11:56:17.440Z,50368
2018-04-26T11:57:18.037Z,33088
2018-04-26T11:58:18.715Z,23360
2018-04-26T11:59:19.395Z,25312
2018-04-26T12:00:20.078Z,89056
2018-04-26T12:01:20.750Z,19328
2018-04-26T12:02:21.437Z,5852
2018-04-26T12:03:22.102Z,7484
2018-04-26T12:04:22.776Z,8280
2018-04-26T12:05:23.452Z,9924
2018-04-26T12:06:24.136Z,13632
2018-04-26T12:07:24.821Z,13712
2018-04-26T12:08:25.497Z,9036
2018-04-26T12:09:26.177Z,8332
2018-04-26T12:10:26.857Z,21056
2018-04-26T12:11:27.539Z,10264
2018-04-26T12:12:28.220Z,17728
2018-04-26T12:13:28.903Z,7728
2018-04-26T12:14:29.585Z,5792
2018-04-26T12:15:30.264Z,4712
2018-04-26T12:16:30.944Z,4888
2018-04-26T12:17:31.633Z,6876
2018-04-26T12:18:32.333Z,10916
2018-04-26T12:19:32.999Z,54240
2018-04-26T12:20:33.682Z,33568
2018-04-26T12:21:34.362Z,112224
2018-04-26T12:22:35.046Z,116800
2018-04-26T12:23:35.722Z,8896
2018-04-26T12:24:36.400Z,9160
2018-04-26T12:25:37.102Z,13104
2018-04-26T12:26:37.777Z,128384
2018-04-26T12:27:38.461Z,124608
2018-04-26T12:28:39.143Z,118752
2018-04-26T12:29:39.829Z,131520
2018-04-26T12:30:40.503Z,122368
2018-04-26T12:31:41.200Z,81824
2018-04-26T12:32:41.883Z,100512
2018-04-26T12:33:42.562Z,16768
2018-04-26T12:34:43.243Z,6996
2018-04-26T12:35:43.931Z,5820
2018-04-26T12:36:44.610Z,5532
2018-04-26T12:37:45.288Z,4288
2018-04-26T12:38:45.971Z,4476
2018-04-26T12:39:46.652Z,5188
2018-04-26T12:40:47.334Z,6752
2018-04-26T12:41:48.017Z,9148
2018-04-26T12:42:48.707Z,5060
2018-04-26T12:43:49.398Z,4940
2018-04-26T12:44:50.003Z,5800
2018-04-26T12:45:50.758Z,5784
2018-04-26T12:46:51.447Z,5952
2018-04-26T12:47:52.127Z,5328
2018-04-26T12:48:52.803Z,4952
2018-04-26T12:49:53.481Z,5372
2018-04-26T12:50:54.165Z,6164
2018-04-26T12:51:54.851Z,6076
2018-04-26T12:52:55.526Z,6180
2018-04-26T12:53:56.209Z,11192
2018-04-26T12:54:56.899Z,17248
2018-04-26T12:55:57.585Z,15436
2018-04-26T12:56:58.276Z,12664
2018-04-26T12:57:58.956Z,10712
2018-04-26T12:58:59.638Z,10612
2018-04-26T13:00:00.322Z,10688
2018-04-26T13:01:01.006Z,10640
2018-04-26T13:02:01.686Z,10696
2018-04-26T13:03:02.367Z,10260
2018-04-26T13:04:03.048Z,10260
2018-04-26T13:05:03.758Z,10488
2018-04-26T13:06:04.412Z,10848
2018-04-26T13:07:05.092Z,10980
2018-04-26T13:08:05.770Z,11228
2018-04-26T13:09:06.461Z,11072
2018-04-26T13:10:07.143Z,13428
2018-04-26T13:11:07.821Z,15096
2018-04-26T13:12:08.503Z,13700
2018-04-26T13:13:09.188Z,15744
2018-04-26T13:14:09.837Z,14288
2018-04-26T13:15:10.560Z,13556
2018-04-26T13:16:11.240Z,13436
2018-04-26T13:17:12.013Z,17152
2018-04-26T13:18:12.612Z,11212
2018-04-26T13:19:13.306Z,8652
2018-04-26T13:20:13.988Z,8216
2018-04-26T13:21:14.764Z,9988
2018-04-26T13:22:15.357Z,15808
2018-04-26T13:23:16.120Z,7328
2018-04-26T13:24:16.718Z,6116
2018-04-26T13:25:17.405Z,6608
2018-04-26T13:26:18.094Z,8908
2018-04-26T13:27:18.838Z,14920
2018-04-26T13:28:19.461Z,18688
2018-04-26T13:29:20.142Z,7244
2018-04-26T13:30:20.816Z,5476
2018-04-26T13:31:21.498Z,4744
2018-04-26T13:32:22.180Z,4816
2018-04-26T13:33:22.868Z,5892
2018-04-26T13:34:23.548Z,7256
2018-04-26T13:35:24.236Z,7808
2018-04-26T13:36:24.943Z,9644
2018-04-26T13:37:25.605Z,20768
2018-04-26T13:38:26.292Z,16224
2018-04-26T13:39:26.985Z,15348
2018-04-26T13:40:27.668Z,10840
2018-04-26T13:41:28.351Z,11288
2018-04-26T13:42:29.033Z,14492
2018-04-26T13:43:29.714Z,13288
2018-04-26T13:44:30.393Z,10444
2018-04-26T13:45:31.085Z,8400
2018-04-26T13:46:31.775Z,8532
2018-04-26T13:47:32.453Z,9608
2018-04-26T13:48:33.137Z,14152
2018-04-26T13:49:33.818Z,11972
2018-04-26T13:50:34.497Z,11876
2018-04-26T13:51:35.193Z,10804
2018-04-26T13:52:35.870Z,13372